Sea Cloud — 9HOM2 — position and weather

sailwx.info

Track history (hours):
 
Tides and Currents Weather Stations Pressure Air Temp Water Temp Dewpoint Dewpoint Depression Visibility Wind Speed Wind Dir Waves Ship Positions

Sea Cloud

Ship's website: http://www.seacloud.com/en/the-ships/sea-cloud.html

Last reported at 2019-Sep-19 00:11 UTC. Time now 2019-Sep-21 00:35 UTC.
Position N 37°11' E 025°49'.

Length 110 m; draft 5.3 m.

Type: Ship. MMSI: 256084000.

Date/timePositionNaut miles runAvg speedWind from/ knotsBaromVisibWave heightAir tempDewpointWater temp
2019-Sep-19 00:11N 37°11' E 025°49'1 8.0
2019-Sep-19 00:00N 37°12' E 025°47'4 7.8
2019-Sep-18 23:30N 37°13' E 025°42'6 7.5
2019-Sep-18 22:41N 37°15' E 025°35'2 7.3
2019-Sep-18 22:26N 37°15' E 025°33'3 7.4
2019-Sep-18 22:00N 37°16' E 025°29'4 7.3
2019-Sep-18 21:30N 37°17' E 025°25'4 7.5
2019-Sep-18 21:00N 37°18' E 025°20'4 7.2
2019-Sep-18 20:30N 37°19' E 025°16'4 7.7
2019-Sep-18 20:00N 37°21' E 025°11'4 7.4
2019-Sep-18 19:30N 37°24' E 025°09'4 7.0
2019-Sep-18 19:00N 37°27' E 025°11'3 6.4
2019-Sep-18 18:30N 37°27' E 025°15'2 4.6
2019-Sep-18 18:00N 37°24' E 025°15'0 0.0
2019-Sep-18 16:32N 37°24' E 025°15'0 0.0
2019-Sep-18 16:29N 37°24' E 025°15'0 0.0
2019-Sep-18 15:56N 37°24' E 025°15'0 0.0
2019-Sep-18 15:26N 37°24' E 025°15'0 0.0
2019-Sep-18 14:59N 37°24' E 025°15'0 0.0
2019-Sep-18 14:26N 37°24' E 025°15'0 0.0
2019-Sep-18 13:59N 37°24' E 025°15'0 0.0
2019-Sep-18 13:29N 37°24' E 025°15'0 0.0
2019-Sep-18 12:59N 37°24' E 025°15'0 0.0
2019-Sep-18 12:29N 37°24' E 025°15'0 0.0
2019-Sep-18 11:56N 37°24' E 025°15'1 1.5
2019-Sep-18 11:30N 37°25' E 025°15'4 7.1
2019-Sep-18 11:00N 37°28' E 025°13'4 8.1
2019-Sep-18 10:30N 37°31' E 025°10'1 1.6
2019-Sep-18 09:58N 37°32' E 025°09'0 0.0
2019-Sep-18 09:28N 37°32' E 025°09'0 0.0
2019-Sep-18 08:58N 37°32' E 025°09'0 0.0
2019-Sep-18 08:13N 37°32' E 025°09'0 0.0
2019-Sep-18 07:58N 37°32' E 025°09'0 0.0
2019-Sep-18 07:28N 37°32' E 025°09'0 0.0
2019-Sep-18 06:55N 37°32' E 025°09'0 0.0
2019-Sep-18 06:28N 37°32' E 025°09'0 0.0
2019-Sep-18 05:58N 37°32' E 025°09'0 0.0
2019-Sep-18 05:28N 37°32' E 025°09'0 0.0
2019-Sep-18 04:58N 37°32' E 025°09'0 0.0
2019-Sep-18 04:28N 37°32' E 025°09'1 1.2
2019-Sep-18 04:00N 37°32' E 025°09'4 8.3
2019-Sep-18 03:30N 37°33' E 025°04'4 7.7
2019-Sep-18 03:00N 37°34' E 024°59'4 7.8
2019-Sep-18 02:30N 37°34' E 024°54'4 7.6
2019-Sep-18 02:00N 37°34' E 024°49'4 7.8
2019-Sep-18 01:30N 37°33' E 024°45'35 5.6
2019-Sep-17 19:17N 37°39' E 024°01'2 5.1
2019-Sep-17 18:49N 37°38' E 023°58'310.3
2019-Sep-17 18:29N 37°38' E 023°54'510.4
2019-Sep-17 18:00N 37°39' E 023°48'5 9.5
2019-Sep-17 17:30N 37°41' E 023°42'5 9.4
2019-Sep-17 17:00N 37°45' E 023°40'5 9.4
2019-Sep-17 16:30N 37°49' E 023°37'4 8.8
2019-Sep-17 16:00N 37°54' E 023°37'3 5.6
2019-Sep-17 15:30N 37°56' E 023°38'0 0.0
2019-Sep-17 14:53N 37°56' E 023°38'0 0.0
2019-Sep-17 14:28N 37°56' E 023°38'0 0.0
2019-Sep-17 13:59N 37°56' E 023°38'0 0.0
2019-Sep-17 13:16N 37°56' E 023°38'0 0.0
2019-Sep-17 12:58N 37°56' E 023°38'0 0.0
2019-Sep-17 12:16N 37°56' E 023°38'0 0.0
2019-Sep-17 11:59N 37°56' E 023°38'0 0.0
2019-Sep-17 11:17N 37°56' E 023°38'0 0.0
2019-Sep-17 10:52N 37°56' E 023°38'0 0.0
2019-Sep-17 10:29N 37°56' E 023°38'0 0.0
2019-Sep-17 09:58N 37°56' E 023°38'0 0.0
2019-Sep-17 09:29N 37°56' E 023°38'0 0.0
2019-Sep-17 08:59N 37°56' E 023°38'0 0.0
2019-Sep-17 08:29N 37°56' E 023°38'0 0.0
2019-Sep-17 07:56N 37°56' E 023°38'0 0.0
2019-Sep-17 07:25N 37°56' E 023°38'0 0.0
2019-Sep-17 06:53N 37°56' E 023°38'0 0.0
2019-Sep-17 06:28N 37°56' E 023°38'0 0.0
2019-Sep-17 05:55N 37°56' E 023°38'0 0.0
2019-Sep-17 05:26N 37°56' E 023°38'0 0.0
2019-Sep-17 04:58N 37°56' E 023°38'0 0.0
2019-Sep-17 04:26N 37°56' E 023°38'0 0.0
2019-Sep-17 03:59N 37°56' E 023°38'0 0.0
2019-Sep-17 03:28N 37°56' E 023°38'0 0.0
2019-Sep-17 02:58N 37°56' E 023°38'0 0.0
2019-Sep-17 02:28N 37°56' E 023°38'0 0.0
2019-Sep-17 01:59N 37°56' E 023°38'0 0.0
2019-Sep-17 01:25N 37°56' E 023°38'1 2.1
2019-Sep-17 01:00N 37°56' E 023°37'3 6.7
2019-Sep-17 00:30N 37°53' E 023°38'4 7.4
2019-Sep-17 00:00N 37°50' E 023°40'4 7.5
2019-Sep-16 23:30N 37°46' E 023°42'4 7.5
2019-Sep-16 23:00N 37°43' E 023°44'4 7.6
2019-Sep-16 22:30N 37°40' E 023°47'4 7.7
2019-Sep-16 22:00N 37°37' E 023°50'10 6.6
2019-Sep-16 20:32N 37°28' E 023°44'1 7.7
2019-Sep-16 20:26N 37°28' E 023°43'6 7.7
2019-Sep-16 19:38N 37°30' E 023°35'1 7.4
2019-Sep-16 19:27N 37°30' E 023°33'3 7.3
2019-Sep-16 18:59N 37°30' E 023°29'1 2.1
2019-Sep-16 18:29N 37°30' E 023°28'0 0.0
2019-Sep-16 17:59N 37°30' E 023°28'0 0.0
2019-Sep-16 17:20N 37°30' E 023°28'0 0.0
2019-Sep-16 16:59N 37°30' E 023°28'0 0.0
2019-Sep-16 16:29N 37°30' E 023°28'0 0.0
2019-Sep-16 15:53N 37°30' E 023°28'0 0.0
2019-Sep-16 15:26N 37°30' E 023°28'0 0.1
2019-Sep-16 14:53N 37°30' E 023°28'2 4.4
2019-Sep-16 14:30N 37°30' E 023°30'4 8.4
2019-Sep-16 14:00N 37°32' E 023°35'1 1.4
2019-Sep-16 13:29N 37°33' E 023°35'0 0.8
2019-Sep-16 12:55N 37°33' E 023°35'0 0.5
2019-Sep-16 12:23N 37°33' E 023°35'0 0.2
2019-Sep-16 12:00N 37°33' E 023°35'0 0.6
2019-Sep-16 11:30N 37°34' E 023°35'3 5.9
2019-Sep-16 11:00N 37°34' E 023°31'4 8.6
2019-Sep-16 10:30N 37°32' E 023°26'2 2.0
2019-Sep-16 09:36N 37°31' E 023°26'0 0.0
2019-Sep-16 09:21N 37°31' E 023°26'0 0.0
2019-Sep-16 09:00N 37°31' E 023°26'0 0.0
2019-Sep-16 08:21N 37°31' E 023°26'0 0.0
2019-Sep-16 07:36N 37°31' E 023°26'0 0.0
2019-Sep-16 07:24N 37°31' E 023°26'0 0.0
2019-Sep-16 06:51N 37°31' E 023°26'0 0.0
2019-Sep-16 06:27N 37°31' E 023°26'0 0.0
2019-Sep-16 05:42N 37°31' E 023°26'0 0.0
2019-Sep-16 05:30N 37°31' E 023°26'0 0.0
2019-Sep-16 05:00N 37°31' E 023°26'0 0.3
2019-Sep-16 04:30N 37°31' E 023°26'1 2.6
2019-Sep-16 04:00N 37°32' E 023°25'4 7.1
2019-Sep-16 03:30N 37°34' E 023°29'4 6.8
2019-Sep-16 02:58N 37°33' E 023°33'3 6.9
2019-Sep-16 02:30N 37°31' E 023°36'27 6.2
2019-Sep-15 22:06N 37°11' E 023°13'10 7.2
2019-Sep-15 20:42N 37°15' E 023°01'2 7.7
2019-Sep-15 20:29N 37°16' E 022°60'2 0.1
2019-Sep-15 06:19N 37°17' E 022°58'3 7.5
2019-Sep-15 05:52N 37°14' E 023°00'5 5.4
2019-Sep-15 04:50N 37°10' E 023°04'6 8.1
2019-Sep-15 04:04N 37°10' E 023°12'1 8.2
2019-Sep-15 03:59N 37°10' E 023°13'  
2019-Sep-10 18:14N 37°38' E 023°53'2 9.9
2019-Sep-10 18:00N 37°39' E 023°51'5 9.5
2019-Sep-10 17:30N 37°39' E 023°45'5 9.3
2019-Sep-10 17:01N 37°43' E 023°41'510.3
2019-Sep-10 16:31N 37°47' E 023°38'510.1
2019-Sep-10 16:00N 37°52' E 023°37'4 8.6
2019-Sep-10 15:30N 37°56' E 023°38'0 0.2
2019-Sep-10 15:00N 37°56' E 023°38'0 0.0
2019-Sep-10 14:27N 37°56' E 023°38'0 0.0
2019-Sep-10 14:00N 37°56' E 023°38'0 0.0
2019-Sep-10 13:27N 37°56' E 023°38'0 0.0
2019-Sep-10 13:00N 37°56' E 023°38'0 0.0
2019-Sep-10 12:30N 37°56' E 023°38'0 0.0
2019-Sep-10 11:54N 37°56' E 023°38'0 0.0
2019-Sep-10 11:30N 37°56' E 023°38'0 0.0
2019-Sep-10 11:00N 37°56' E 023°38'0 0.0
2019-Sep-10 10:30N 37°56' E 023°38'0 0.0
2019-Sep-10 09:57N 37°56' E 023°38'0 0.0
2019-Sep-10 09:24N 37°56' E 023°38'0 0.0
2019-Sep-10 09:00N 37°56' E 023°38'0 0.0
2019-Sep-10 08:24N 37°56' E 023°38'0 0.0
2019-Sep-10 08:00N 37°56' E 023°38'0 0.0
2019-Sep-10 07:30N 37°56' E 023°38'0 0.0
2019-Sep-10 06:57N 37°56' E 023°38'0 0.0
2019-Sep-10 06:30N 37°56' E 023°38'0 0.0
2019-Sep-10 04:31N 37°56' E 023°38'0 0.0
2019-Sep-10 04:28N 37°56' E 023°38'0 0.0
2019-Sep-10 03:55N 37°56' E 023°38'0 0.0
2019-Sep-10 03:28N 37°56' E 023°38'1 1.6
2019-Sep-10 03:00N 37°56' E 023°37'1 2.8
2019-Sep-10 02:30N 37°55' E 023°36'2 4.3
2019-Sep-10 02:00N 37°53' E 023°37'4 7.2
2019-Sep-10 01:30N 37°50' E 023°40'4 7.6
2019-Sep-10 01:00N 37°47' E 023°42'4 7.5
2019-Sep-10 00:30N 37°43' E 023°44'3 7.0
2019-Sep-10 00:01N 37°40' E 023°46'7 5.5
2019-Sep-09 22:44N 37°35' E 023°51'2 7.6
2019-Sep-09 22:28N 37°33' E 023°50'9 7.7
2019-Sep-09 21:17N 37°26' E 023°43'  
Track history (hours):
 
Tides and Currents Weather Stations Pressure Air Temp Water Temp Dewpoint Dewpoint Depression Visibility Wind Speed Wind Dir Waves Ship Positions

Sea Cloud

Ship's website: http://www.seacloud.com/en/the-ships/sea-cloud.html

Last reported at 2019-Sep-19 00:11 UTC. Time now 2019-Sep-21 00:35 UTC.
Position N 37°11' E 025°49'.

Length 110 m; draft 5.3 m.

Type: Ship. MMSI: 256084000.

Date/timePositionNaut miles runAvg speedWind from/ knotsBaromVisibWave heightAir tempDewpointWater temp
2019-Sep-19 00:11N 37°11' E 025°49'1 8.0
2019-Sep-19 00:00N 37°12' E 025°47'4 7.8
2019-Sep-18 23:30N 37°13' E 025°42'6 7.5
2019-Sep-18 22:41N 37°15' E 025°35'2 7.3
2019-Sep-18 22:26N 37°15' E 025°33'3 7.4
2019-Sep-18 22:00N 37°16' E 025°29'4 7.3
2019-Sep-18 21:30N 37°17' E 025°25'4 7.5
2019-Sep-18 21:00N 37°18' E 025°20'4 7.2
2019-Sep-18 20:30N 37°19' E 025°16'4 7.7
2019-Sep-18 20:00N 37°21' E 025°11'4 7.4
2019-Sep-18 19:30N 37°24' E 025°09'4 7.0
2019-Sep-18 19:00N 37°27' E 025°11'3 6.4
2019-Sep-18 18:30N 37°27' E 025°15'2 4.6
2019-Sep-18 18:00N 37°24' E 025°15'0 0.0
2019-Sep-18 16:32N 37°24' E 025°15'0 0.0
2019-Sep-18 16:29N 37°24' E 025°15'0 0.0
2019-Sep-18 15:56N 37°24' E 025°15'0 0.0
2019-Sep-18 15:26N 37°24' E 025°15'0 0.0
2019-Sep-18 14:59N 37°24' E 025°15'0 0.0
2019-Sep-18 14:26N 37°24' E 025°15'0 0.0
2019-Sep-18 13:59N 37°24' E 025°15'0 0.0
2019-Sep-18 13:29N 37°24' E 025°15'0 0.0
2019-Sep-18 12:59N 37°24' E 025°15'0 0.0
2019-Sep-18 12:29N 37°24' E 025°15'0 0.0
2019-Sep-18 11:56N 37°24' E 025°15'1 1.5
2019-Sep-18 11:30N 37°25' E 025°15'4 7.1
2019-Sep-18 11:00N 37°28' E 025°13'4 8.1
2019-Sep-18 10:30N 37°31' E 025°10'1 1.6
2019-Sep-18 09:58N 37°32' E 025°09'0 0.0
2019-Sep-18 09:28N 37°32' E 025°09'0 0.0
2019-Sep-18 08:58N 37°32' E 025°09'0 0.0
2019-Sep-18 08:13N 37°32' E 025°09'0 0.0
2019-Sep-18 07:58N 37°32' E 025°09'0 0.0
2019-Sep-18 07:28N 37°32' E 025°09'0 0.0
2019-Sep-18 06:55N 37°32' E 025°09'0 0.0
2019-Sep-18 06:28N 37°32' E 025°09'0 0.0
2019-Sep-18 05:58N 37°32' E 025°09'0 0.0
2019-Sep-18 05:28N 37°32' E 025°09'0 0.0
2019-Sep-18 04:58N 37°32' E 025°09'0 0.0
2019-Sep-18 04:28N 37°32' E 025°09'1 1.2
2019-Sep-18 04:00N 37°32' E 025°09'4 8.3
2019-Sep-18 03:30N 37°33' E 025°04'4 7.7
2019-Sep-18 03:00N 37°34' E 024°59'4 7.8
2019-Sep-18 02:30N 37°34' E 024°54'4 7.6
2019-Sep-18 02:00N 37°34' E 024°49'4 7.8
2019-Sep-18 01:30N 37°33' E 024°45'35 5.6
2019-Sep-17 19:17N 37°39' E 024°01'2 5.1
2019-Sep-17 18:49N 37°38' E 023°58'310.3
2019-Sep-17 18:29N 37°38' E 023°54'510.4
2019-Sep-17 18:00N 37°39' E 023°48'5 9.5
2019-Sep-17 17:30N 37°41' E 023°42'5 9.4
2019-Sep-17 17:00N 37°45' E 023°40'5 9.4
2019-Sep-17 16:30N 37°49' E 023°37'4 8.8
2019-Sep-17 16:00N 37°54' E 023°37'3 5.6
2019-Sep-17 15:30N 37°56' E 023°38'0 0.0
2019-Sep-17 14:53N 37°56' E 023°38'0 0.0
2019-Sep-17 14:28N 37°56' E 023°38'0 0.0
2019-Sep-17 13:59N 37°56' E 023°38'0 0.0
2019-Sep-17 13:16N 37°56' E 023°38'0 0.0
2019-Sep-17 12:58N 37°56' E 023°38'0 0.0
2019-Sep-17 12:16N 37°56' E 023°38'0 0.0
2019-Sep-17 11:59N 37°56' E 023°38'0 0.0
2019-Sep-17 11:17N 37°56' E 023°38'0 0.0
2019-Sep-17 10:52N 37°56' E 023°38'0 0.0
2019-Sep-17 10:29N 37°56' E 023°38'0 0.0
2019-Sep-17 09:58N 37°56' E 023°38'0 0.0
2019-Sep-17 09:29N 37°56' E 023°38'0 0.0
2019-Sep-17 08:59N 37°56' E 023°38'0 0.0
2019-Sep-17 08:29N 37°56' E 023°38'0 0.0
2019-Sep-17 07:56N 37°56' E 023°38'0 0.0
2019-Sep-17 07:25N 37°56' E 023°38'0 0.0
2019-Sep-17 06:53N 37°56' E 023°38'0 0.0
2019-Sep-17 06:28N 37°56' E 023°38'0 0.0
2019-Sep-17 05:55N 37°56' E 023°38'0 0.0
2019-Sep-17 05:26N 37°56' E 023°38'0 0.0
2019-Sep-17 04:58N 37°56' E 023°38'0 0.0
2019-Sep-17 04:26N 37°56' E 023°38'0 0.0
2019-Sep-17 03:59N 37°56' E 023°38'0 0.0
2019-Sep-17 03:28N 37°56' E 023°38'0 0.0
2019-Sep-17 02:58N 37°56' E 023°38'0 0.0
2019-Sep-17 02:28N 37°56' E 023°38'0 0.0
2019-Sep-17 01:59N 37°56' E 023°38'0 0.0
2019-Sep-17 01:25N 37°56' E 023°38'1 2.1
2019-Sep-17 01:00N 37°56' E 023°37'3 6.7
2019-Sep-17 00:30N 37°53' E 023°38'4 7.4
2019-Sep-17 00:00N 37°50' E 023°40'4 7.5
2019-Sep-16 23:30N 37°46' E 023°42'4 7.5
2019-Sep-16 23:00N 37°43' E 023°44'4 7.6
2019-Sep-16 22:30N 37°40' E 023°47'4 7.7
2019-Sep-16 22:00N 37°37' E 023°50'10 6.6
2019-Sep-16 20:32N 37°28' E 023°44'1 7.7
2019-Sep-16 20:26N 37°28' E 023°43'6 7.7
2019-Sep-16 19:38N 37°30' E 023°35'1 7.4
2019-Sep-16 19:27N 37°30' E 023°33'3 7.3
2019-Sep-16 18:59N 37°30' E 023°29'1 2.1
2019-Sep-16 18:29N 37°30' E 023°28'0 0.0
2019-Sep-16 17:59N 37°30' E 023°28'0 0.0
2019-Sep-16 17:20N 37°30' E 023°28'0 0.0
2019-Sep-16 16:59N 37°30' E 023°28'0 0.0
2019-Sep-16 16:29N 37°30' E 023°28'0 0.0
2019-Sep-16 15:53N 37°30' E 023°28'0 0.0
2019-Sep-16 15:26N 37°30' E 023°28'0 0.1
2019-Sep-16 14:53N 37°30' E 023°28'2 4.4
2019-Sep-16 14:30N 37°30' E 023°30'4 8.4
2019-Sep-16 14:00N 37°32' E 023°35'1 1.4
2019-Sep-16 13:29N 37°33' E 023°35'0 0.8
2019-Sep-16 12:55N 37°33' E 023°35'0 0.5
2019-Sep-16 12:23N 37°33' E 023°35'0 0.2
2019-Sep-16 12:00N 37°33' E 023°35'0 0.6
2019-Sep-16 11:30N 37°34' E 023°35'3 5.9
2019-Sep-16 11:00N 37°34' E 023°31'4 8.6
2019-Sep-16 10:30N 37°32' E 023°26'2 2.0
2019-Sep-16 09:36N 37°31' E 023°26'0 0.0
2019-Sep-16 09:21N 37°31' E 023°26'0 0.0
2019-Sep-16 09:00N 37°31' E 023°26'0 0.0
2019-Sep-16 08:21N 37°31' E 023°26'0 0.0
2019-Sep-16 07:36N 37°31' E 023°26'0 0.0
2019-Sep-16 07:24N 37°31' E 023°26'0 0.0
2019-Sep-16 06:51N 37°31' E 023°26'0 0.0
2019-Sep-16 06:27N 37°31' E 023°26'0 0.0
2019-Sep-16 05:42N 37°31' E 023°26'0 0.0
2019-Sep-16 05:30N 37°31' E 023°26'0 0.0
2019-Sep-16 05:00N 37°31' E 023°26'0 0.3
2019-Sep-16 04:30N 37°31' E 023°26'1 2.6
2019-Sep-16 04:00N 37°32' E 023°25'4 7.1
2019-Sep-16 03:30N 37°34' E 023°29'4 6.8
2019-Sep-16 02:58N 37°33' E 023°33'3 6.9
2019-Sep-16 02:30N 37°31' E 023°36'27 6.2
2019-Sep-15 22:06N 37°11' E 023°13'10 7.2
2019-Sep-15 20:42N 37°15' E 023°01'2 7.7
2019-Sep-15 20:29N 37°16' E 022°60'2 0.1
2019-Sep-15 06:19N 37°17' E 022°58'3 7.5
2019-Sep-15 05:52N 37°14' E 023°00'5 5.4
2019-Sep-15 04:50N 37°10' E 023°04'6 8.1
2019-Sep-15 04:04N 37°10' E 023°12'1 8.2
2019-Sep-15 03:59N 37°10' E 023°13'  
2019-Sep-10 18:14N 37°38' E 023°53'2 9.9
2019-Sep-10 18:00N 37°39' E 023°51'5 9.5
2019-Sep-10 17:30N 37°39' E 023°45'5 9.3
2019-Sep-10 17:01N 37°43' E 023°41'510.3
2019-Sep-10 16:31N 37°47' E 023°38'510.1
2019-Sep-10 16:00N 37°52' E 023°37'4 8.6
2019-Sep-10 15:30N 37°56' E 023°38'0 0.2
2019-Sep-10 15:00N 37°56' E 023°38'0 0.0
2019-Sep-10 14:27N 37°56' E 023°38'0 0.0
2019-Sep-10 14:00N 37°56' E 023°38'0 0.0
2019-Sep-10 13:27N 37°56' E 023°38'0 0.0
2019-Sep-10 13:00N 37°56' E 023°38'0 0.0
2019-Sep-10 12:30N 37°56' E 023°38'0 0.0
2019-Sep-10 11:54N 37°56' E 023°38'0 0.0
2019-Sep-10 11:30N 37°56' E 023°38'0 0.0
2019-Sep-10 11:00N 37°56' E 023°38'0 0.0
2019-Sep-10 10:30N 37°56' E 023°38'0 0.0
2019-Sep-10 09:57N 37°56' E 023°38'0 0.0
2019-Sep-10 09:24N 37°56' E 023°38'0 0.0
2019-Sep-10 09:00N 37°56' E 023°38'0 0.0
2019-Sep-10 08:24N 37°56' E 023°38'0 0.0
2019-Sep-10 08:00N 37°56' E 023°38'0 0.0
2019-Sep-10 07:30N 37°56' E 023°38'0 0.0
2019-Sep-10 06:57N 37°56' E 023°38'0 0.0
2019-Sep-10 06:30N 37°56' E 023°38'0 0.0
2019-Sep-10 04:31N 37°56' E 023°38'0 0.0
2019-Sep-10 04:28N 37°56' E 023°38'0 0.0
2019-Sep-10 03:55N 37°56' E 023°38'0 0.0
2019-Sep-10 03:28N 37°56' E 023°38'1 1.6
2019-Sep-10 03:00N 37°56' E 023°37'1 2.8
2019-Sep-10 02:30N 37°55' E 023°36'2 4.3
2019-Sep-10 02:00N 37°53' E 023°37'4 7.2
2019-Sep-10 01:30N 37°50' E 023°40'4 7.6
2019-Sep-10 01:00N 37°47' E 023°42'4 7.5
2019-Sep-10 00:30N 37°43' E 023°44'3 7.0
2019-Sep-10 00:01N 37°40' E 023°46'7 5.5
2019-Sep-09 22:44N 37°35' E 023°51'2 7.6
2019-Sep-09 22:28N 37°33' E 023°50'9 7.7
2019-Sep-09 21:17N 37°26' E 023°43'  

Dump ship's entire track history